Latest Coastal Weather Observations for Bellambi

IDN60701

Issued at 2:51 pm EDT Wednesday 22 February 2017 (issued every 10 minutes, with the page automatically refreshed every 10 minutes)

About coastal observations | Map of coastal stations | Coastal observations for NSW | Marine services | Other Formats
Station Details ID: 068228 Name: BELLAMBI AWS Lat: -34.37 Lon: 150.93 Height: 10.0 m
Data from the previous 72 hours. | See also: Recent months at Bellambi
Date/Time
EDT
Temp
°C
Wind Pressure Rain since
9am
mm
Weather Cloud Vis
km
Sea
Height
m
Swell
Dir  Spd
kts
Gust
kts
hPa Trend Height
m
Period
s
Dir
22/02:30pm 24.4 NE 22 25 - - 0.0 - - - - - - -
22/02:00pm 24.5 NE 21 25 - - 0.0 - - - - - - -
22/01:30pm 24.4 NE 21 24 - - 0.0 - - - - - - -
22/01:00pm 24.4 NE 21 25 - - 0.0 - - - - - - -
22/12:30pm 24.5 NE 18 22 - - 0.0 - Partly cloudy - - - - -
22/12:00pm 24.7 NE 16 20 - - 0.0 - Mostly clear - - - - -
22/11:30am 24.9 NE 13 17 - - 0.0 - Partly cloudy - - - - -
22/11:00am 24.9 NE 11 14 - - 0.0 - Partly cloudy - - - - -
22/10:30am 25.1 NNE 10 14 - - 0.0 - - - - - - -
22/10:00am 24.2 N 13 17 - - 0.0 - - - - - - -
22/09:30am 24.1 N 15 19 - - 0.0 - - - - - - -
22/09:00am 23.8 N 13 20 - - 0.0 - - - - - - -
22/08:30am 23.0 N 13 17 - - 0.0 - - - - - - -
22/08:00am 22.5 N 15 18 - - 0.0 - - - - - - -
22/07:30am 22.0 N 12 15 - - 0.0 - - - - - - -
22/07:00am 21.4 N 12 14 - - 0.0 - - - - - - -
22/06:30am 21.4 N 11 13 - - 0.0 - - - - - - -
22/06:00am 21.3 N 10 13 - - 0.0 - - - - - - -
22/05:30am 21.3 N 10 11 - - 0.0 - - - - - - -
22/05:00am 21.4 N 11 15 - - 0.0 - - - - - - -
22/04:30am 21.4 N 9 11 - - 0.0 - - - - - - -
22/04:00am 21.4 N 11 13 - - 0.0 - - - - - - -
22/03:30am 21.5 N 9 11 - - 0.0 - - - - - - -
22/03:00am 21.7 N 10 13 - - 0.0 - - - - - - -
22/02:30am 21.7 NNW 11 13 - - 0.0 - - - - - - -
22/02:00am 21.7 NNW 11 13 - - 0.0 - - - - - - -
22/01:30am 21.9 N 11 14 - - 0.0 - Partly cloudy - - - - -
22/01:00am 22.0 NNW 12 14 - - 0.0 - - - - - - -
22/12:30am 21.7 N 8 10 - - 0.0 - - - - - - -
22/12:00am 22.0 N 8 12 - - 0.0 - - - - - - -
 
Date/Time
EDT
Temp
°C
Wind Pressure Rain since
9am
mm
Weather Cloud Vis
km
Sea
Height
m
Swell
Dir  Spd
kts
Gust
kts
hPa Trend Height
m
Period
s
Dir
21/11:30pm 22.2 N 8 10 - - 0.0 - - - - - - -
21/11:00pm 22.5 N 10 12 - - 0.0 - Partly cloudy - - - - -
21/10:30pm 22.7 N 10 13 - - 0.0 - Partly cloudy - - - - -
21/10:00pm 22.5 N 5 8 - - 0.0 - Partly cloudy - - - - -
21/09:30pm 22.5 NE 11 13 - - 0.0 - Partly cloudy - - - - -
21/09:00pm 22.5 ENE 12 13 - - 0.0 - Cloudy - - - - -
21/08:30pm 22.4 ENE 11 13 - - 0.0 - Partly cloudy - - - - -
21/08:00pm 22.5 ENE 11 12 - - 0.0 - Partly cloudy - - - - -
21/07:30pm 22.7 ENE 11 14 - - 0.0 - Partly cloudy - - - - -
21/07:00pm 22.9 ENE 9 11 - - 0.0 - Partly cloudy - - - - -
21/06:30pm 23.3 E 6 7 - - 0.0 - Cloudy - - - - -
21/06:00pm 23.7 ESE 7 8 - - 0.0 - - - - - - -
21/05:30pm 24.3 E 7 8 - - 0.0 - - - - - - -
21/05:00pm 24.7 ENE 6 7 - - 0.0 - - - - - - -
21/04:30pm 24.6 E 6 7 - - 0.0 - - - - - - -
21/04:00pm 24.5 E 5 6 - - 0.0 - - - - - - -
21/03:30pm 24.4 ESE 4 5 - - 0.0 - - - - - - -
21/03:00pm 24.4 E 5 7 - - 0.0 - Mostly clear - - - - -
21/02:30pm 24.4 E 7 8 - - 0.0 - - - - - - -
21/02:00pm 24.5 E 6 7 - - 0.0 - Partly cloudy - - - - -
21/01:30pm 24.4 E 7 8 - - 0.0 - - - - - - -
21/01:00pm 24.5 SE 8 9 - - 0.0 - Partly cloudy - - - - -
21/12:30pm 23.6 SE 9 10 - - 0.0 - - - - - - -
21/12:00pm 23.7 SE 10 11 - - 0.0 - - - - - - -
21/11:30am 23.7 SE 10 12 - - 0.0 - Partly cloudy - - - - -
21/11:00am 22.9 SSE 9 11 - - 0.0 - Partly cloudy - - - - -
21/10:30am 22.9 SSE 8 10 - - 0.0 - Partly cloudy - - - - -
21/10:00am 22.6 S 8 10 - - 0.0 - Partly cloudy - - - - -
21/09:30am 22.1 S 6 8 - - 0.0 - Partly cloudy - - - - -
21/09:00am 21.6 CALM 0 2 - - 0.0 - Mostly clear - - - - -
21/08:30am 20.7 SSW 4 5 - - 0.0 - Partly cloudy - - - - -
21/08:00am 19.7 CALM 0 0 - - 0.0 - - - - - - -
21/07:30am 17.5 CALM 0 0 - - 0.0 - - - - - - -
21/07:00am 16.0 WNW 3 5 - - 0.0 - - - - - - -
21/06:30am 16.0 NW 4 6 - - 0.0 - - - - - - -
21/06:00am 16.2 NW 5 6 - - 0.0 - - - - - - -
21/05:30am 17.1 CALM 0 0 - - 0.0 - - - - - - -
21/05:00am 16.9 WSW 4 5 - - 0.0 - - - - - - -
21/04:30am 17.4 WNW 5 6 - - 0.0 - - - - - - -
21/04:00am 17.3 NW 5 7 - - 0.0 - - - - - - -
21/03:30am 17.9 WSW 6 8 - - 0.0 - - - - - - -
21/03:00am 18.4 WSW 8 11 - - 0.0 - - - - - - -
21/02:30am 18.6 W 9 13 - - 0.0 - - - - - - -
21/02:00am 18.6 W 9 12 - - 0.0 - - - - - - -
21/01:30am 18.6 WSW 10 13 - - 0.0 - - - - - - -
21/01:00am 18.0 NW 9 12 - - 0.0 - - - - - - -
21/12:30am 18.7 WNW 12 15 - - 0.0 - - - - - - -
21/12:00am 18.6 W 5 7 - - 0.0 - - - - - - -
 
Date/Time
EDT
Temp
°C
Wind Pressure Rain since
9am
mm
Weather Cloud Vis
km
Sea
Height
m
Swell
Dir  Spd
kts
Gust
kts
hPa Trend Height
m
Period
s
Dir
20/11:30pm 18.8 W 7 8 - - 0.0 - - - - - - -
20/11:00pm 19.7 WSW 3 7 - - 0.0 - - - - - - -
20/10:30pm 20.4 NNE 1 4 - - 0.0 - - - - - - -
20/10:00pm 20.6 NNW 5 9 - - 0.0 - - - - - - -
20/09:30pm 21.4 NNE 6 10 - - 0.0 - - - - - - -
20/09:00pm 21.5 NE 5 9 - - 0.0 - - - - - - -
20/08:30pm 21.3 WSW 7 8 - - 0.0 - - - - - - -
20/08:00pm 22.1 WSW 6 9 - - 0.0 - - - - - - -
20/07:30pm 23.9 WSW 5 7 - - 0.0 - - - - - - -
20/07:00pm 25.3 WSW 8 13 - - 0.0 - - - - - - -
20/06:30pm 26.1 W 9 13 - - 0.0 - - - - - - -
20/06:00pm 26.6 WSW 9 15 - - 0.0 - - - - - - -
20/05:30pm 26.7 WSW 10 17 - - 0.0 - - - - - - -
20/05:00pm 27.0 W 9 16 - - 0.0 - - - - - - -
20/04:30pm 27.0 WSW 10 17 - - 0.0 - - - - - - -
20/04:00pm 27.1 W 10 18 - - 0.0 - - - - - - -
20/03:30pm 26.4 WNW 9 15 - - 0.0 - - - - - - -
20/03:00pm 26.1 W 10 16 - - 0.0 - - - - - - -
20/02:30pm 25.7 W 9 17 - - 0.0 - - - - - - -
20/02:00pm 25.2 WSW 12 18 - - 0.0 - - - - - - -
20/01:30pm 24.5 WSW 11 19 - - 0.0 - - - - - - -
20/01:00pm 23.8 WSW 11 20 - - 0.0 - - - - - - -
20/12:30pm 23.7 W 10 16 - - 0.0 - - - - - - -
20/12:00pm 23.1 W 9 13 - - 0.0 - - - - - - -
20/11:30am 22.5 WSW 13 19 - - 0.0 - - - - - - -
20/11:00am 21.9 W 9 19 - - 0.0 - - - - - - -
20/10:30am 20.6 W 12 24 - - 0.0 - - - - - - -
20/10:00am 20.1 WSW 8 19 - - 0.0 - - - - - - -
20/09:30am 19.2 SW 8 19 - - 0.0 - - - - - - -
20/09:00am 18.5 SW 11 17 - - 0.2 - - - - - - -
20/08:30am 17.9 WSW 7 12 - - 0.2 - - - - - - -
20/08:00am 17.1 WSW 8 15 - - 0.2 - - - - - - -
20/07:30am 16.8 WNW 11 19 - - 0.2 - - - - - - -
20/07:00am 16.5 WNW 10 16 - - 0.2 - - - - - - -
20/06:30am 16.1 NW 9 13 - - 0.2 - - - - - - -
20/06:00am 16.8 WNW 11 19 - - 0.2 - - - - - - -
20/05:30am 16.7 WSW 4 9 - - 0.2 - - - - - - -
20/05:00am 17.5 W 13 21 - - 0.2 - - - - - - -
20/04:30am 17.8 SW 9 15 - - 0.2 - - - - - - -
20/04:00am 17.9 SW 10 16 - - 0.2 - - - - - - -
20/03:30am 18.1 SW 11 18 - - 0.2 - - - - - - -
20/03:00am 18.2 SW 8 13 - - 0.2 - - - - - - -
20/02:30am 18.7 SW 10 17 - - 0.2 - - - - - - -
20/02:00am 18.8 SW 7 13 - - 0.2 - - - - - - -
20/01:30am 19.0 SW 8 12 - - 0.2 - - - - - - -
20/01:00am 19.6 WSW 7 12 - - 0.2 - - - - - - -
20/12:30am 19.7 WSW 6 10 - - 0.2 - - - - - - -
20/12:00am 19.9 WSW 5 7 - - 0.2 - Mostly clear - - - - -
 
Date/Time
EDT
Temp
°C
Wind Pressure Rain since
9am
mm
Weather Cloud Vis
km
Sea
Height
m
Swell
Dir  Spd
kts
Gust
kts
hPa Trend Height
m
Period
s
Dir
19/11:30pm 19.9 WSW 7 12 - - 0.2 - - - - - - -
19/11:00pm 20.0 WNW 4 6 - - 0.2 - - - - - - -
19/10:30pm 20.3 NW 5 7 - - 0.2 - - - - - - -
19/10:00pm 20.4 WSW 6 8 - - 0.2 - - - - - - -
19/09:30pm 20.9 WNW 3 7 - - 0.2 - Partly cloudy - - - - -
19/09:00pm 21.3 W 4 5 - - 0.2 - Mostly cloudy - - - - -
19/08:30pm 21.7 SSW 3 5 - - 0.2 - Partly cloudy - - - - -
19/08:00pm 22.2 CALM 0 0 - - 0.2 - Partly cloudy - - - - -
19/07:30pm 22.2 CALM 0 3 - - 0.2 - Partly cloudy - - - - -
19/07:00pm 22.2 N 1 4 - - 0.2 - Partly cloudy - - - - -
19/06:30pm 22.4 N 2 4 - - 0.2 - Partly cloudy - - - - -
19/06:00pm 22.9 E 1 4 - - 0.2 - Mostly clear - - - - -
19/05:30pm 23.7 CALM 0 3 - - 0.2 - Partly cloudy - - - - -
19/05:00pm 23.4 SSE 1 4 - - 0.2 - - - - - - -
19/04:30pm 22.9 SSW 4 5 - - 0.2 - - - - - - -
19/04:00pm 22.9 NNE 3 5 - - 0.2 - - - - - - -
19/03:30pm 23.0 NE 4 5 - - 0.2 - - - - - - -
19/03:00pm 22.7 E 4 5 - - 0.2 - - - - - - -

Other Formats:

Comma delimited format used in spreadsheet applications
http://www.bom.gov.au/fwo/IDN60701/IDN60701.94749.axf

JavaScript Object Notation format (JSON) in row-major order
http://www.bom.gov.au/fwo/IDN60701/IDN60701.94749.json